sensor_id;sensor_type;location;lat;lon;timestamp;P1;durP1;ratioP1;P2;durP2;ratioP2
1336;SDS011;662;48.814;9.318;2023-07-13T00:02:09;2.17;;;1.20;;
1336;SDS011;662;48.814;9.318;2023-07-13T00:04:35;1.97;;;1.87;;
1336;SDS011;662;48.814;9.318;2023-07-13T00:07:01;2.53;;;1.10;;
1336;SDS011;662;48.814;9.318;2023-07-13T00:09:27;2.47;;;1.40;;
1336;SDS011;662;48.814;9.318;2023-07-13T00:11:54;1.60;;;1.07;;
1336;SDS011;662;48.814;9.318;2023-07-13T00:14:20;4.37;;;1.40;;
1336;SDS011;662;48.814;9.318;2023-07-13T00:16:46;1.57;;;1.20;;
1336;SDS011;662;48.814;9.318;2023-07-13T00:19:12;1.63;;;0.90;;
1336;SDS011;662;48.814;9.318;2023-07-13T00:21:39;1.47;;;1.23;;
1336;SDS011;662;48.814;9.318;2023-07-13T00:24:06;1.20;;;1.10;;
1336;SDS011;662;48.814;9.318;2023-07-13T00:26:32;1.30;;;1.20;;
1336;SDS011;662;48.814;9.318;2023-07-13T00:28:59;1.23;;;1.13;;
1336;SDS011;662;48.814;9.318;2023-07-13T00:31:24;2.20;;;1.30;;
1336;SDS011;662;48.814;9.318;2023-07-13T00:33:50;1.10;;;1.00;;
1336;SDS011;662;48.814;9.318;2023-07-13T00:36:16;2.70;;;1.07;;
1336;SDS011;662;48.814;9.318;2023-07-13T00:38:42;1.40;;;0.97;;
1336;SDS011;662;48.814;9.318;2023-07-13T00:41:08;1.73;;;1.10;;
1336;SDS011;662;48.814;9.318;2023-07-13T00:43:35;1.37;;;1.13;;
1336;SDS011;662;48.814;9.318;2023-07-13T00:48:27;2.90;;;1.60;;
1336;SDS011;662;48.814;9.318;2023-07-13T00:50:57;1.33;;;1.23;;
1336;SDS011;662;48.814;9.318;2023-07-13T00:53:26;1.13;;;0.90;;
1336;SDS011;662;48.814;9.318;2023-07-13T00:55:54;1.70;;;1.00;;
1336;SDS011;662;48.814;9.318;2023-07-13T00:58:22;1.60;;;1.10;;
1336;SDS011;662;48.814;9.318;2023-07-13T01:00:49;1.67;;;1.30;;
1336;SDS011;662;48.814;9.318;2023-07-13T01:03:16;1.00;;;0.90;;
1336;SDS011;662;48.814;9.318;2023-07-13T01:05:42;1.10;;;1.00;;
1336;SDS011;662;48.814;9.318;2023-07-13T01:08:08;3.77;;;1.33;;
1336;SDS011;662;48.814;9.318;2023-07-13T01:10:33;1.47;;;1.10;;
1336;SDS011;662;48.814;9.318;2023-07-13T01:13:07;0.90;;;0.87;;
1336;SDS011;662;48.814;9.318;2023-07-13T01:15:39;1.90;;;1.40;;
1336;SDS011;662;48.814;9.318;2023-07-13T01:18:19;1.30;;;1.13;;
1336;SDS011;662;48.814;9.318;2023-07-13T01:20:50;1.33;;;0.90;;
1336;SDS011;662;48.814;9.318;2023-07-13T01:23:24;1.13;;;1.03;;
1336;SDS011;662;48.814;9.318;2023-07-13T01:25:52;1.73;;;1.33;;
1336;SDS011;662;48.814;9.318;2023-07-13T01:28:18;1.10;;;1.00;;
1336;SDS011;662;48.814;9.318;2023-07-13T01:30:45;1.07;;;0.93;;
1336;SDS011;662;48.814;9.318;2023-07-13T01:33:12;3.23;;;1.73;;
1336;SDS011;662;48.814;9.318;2023-07-13T01:35:39;2.30;;;1.30;;
1336;SDS011;662;48.814;9.318;2023-07-13T01:38:05;2.30;;;1.30;;
1336;SDS011;662;48.814;9.318;2023-07-13T01:40:33;1.60;;;1.50;;
1336;SDS011;662;48.814;9.318;2023-07-13T01:42:58;2.53;;;1.00;;
1336;SDS011;662;48.814;9.318;2023-07-13T01:45:25;1.90;;;1.40;;
1336;SDS011;662;48.814;9.318;2023-07-13T01:47:51;1.30;;;1.20;;
1336;SDS011;662;48.814;9.318;2023-07-13T01:50:17;2.10;;;1.47;;
1336;SDS011;662;48.814;9.318;2023-07-13T01:52:43;1.13;;;1.03;;
1336;SDS011;662;48.814;9.318;2023-07-13T01:55:08;1.40;;;1.23;;
1336;SDS011;662;48.814;9.318;2023-07-13T01:57:34;1.73;;;1.07;;
1336;SDS011;662;48.814;9.318;2023-07-13T02:00:03;2.13;;;1.23;;
1336;SDS011;662;48.814;9.318;2023-07-13T02:02:30;2.17;;;1.23;;
1336;SDS011;662;48.814;9.318;2023-07-13T02:04:56;2.13;;;1.00;;
1336;SDS011;662;48.814;9.318;2023-07-13T02:07:21;1.07;;;1.03;;
1336;SDS011;662;48.814;9.318;2023-07-13T02:09:47;1.43;;;1.20;;
1336;SDS011;662;48.814;9.318;2023-07-13T02:12:12;1.40;;;1.30;;
1336;SDS011;662;48.814;9.318;2023-07-13T02:14:38;1.27;;;1.17;;
1336;SDS011;662;48.814;9.318;2023-07-13T02:17:04;1.63;;;1.10;;
1336;SDS011;662;48.814;9.318;2023-07-13T02:19:30;2.73;;;1.27;;
1336;SDS011;662;48.814;9.318;2023-07-13T02:21:56;1.30;;;1.20;;
1336;SDS011;662;48.814;9.318;2023-07-13T02:24:22;1.37;;;1.27;;
1336;SDS011;662;48.814;9.318;2023-07-13T02:26:48;1.60;;;1.13;;
1336;SDS011;662;48.814;9.318;2023-07-13T02:29:13;1.70;;;1.43;;
1336;SDS011;662;48.814;9.318;2023-07-13T02:31:39;1.40;;;1.30;;
1336;SDS011;662;48.814;9.318;2023-07-13T02:34:05;1.93;;;1.37;;
1336;SDS011;662;48.814;9.318;2023-07-13T02:36:31;2.47;;;1.57;;
1336;SDS011;662;48.814;9.318;2023-07-13T02:38:58;1.60;;;1.50;;
1336;SDS011;662;48.814;9.318;2023-07-13T02:41:28;2.53;;;1.43;;
1336;SDS011;662;48.814;9.318;2023-07-13T02:43:53;3.70;;;1.80;;
1336;SDS011;662;48.814;9.318;2023-07-13T02:46:21;1.63;;;1.20;;
1336;SDS011;662;48.814;9.318;2023-07-13T02:48:49;3.07;;;1.40;;
1336;SDS011;662;48.814;9.318;2023-07-13T02:51:14;2.50;;;1.57;;
1336;SDS011;662;48.814;9.318;2023-07-13T02:53:40;1.40;;;1.30;;
1336;SDS011;662;48.814;9.318;2023-07-13T02:56:05;1.90;;;1.80;;
1336;SDS011;662;48.814;9.318;2023-07-13T02:58:32;5.10;;;1.50;;
1336;SDS011;662;48.814;9.318;2023-07-13T03:01:05;1.77;;;1.57;;
1336;SDS011;662;48.814;9.318;2023-07-13T03:03:32;1.77;;;1.60;;
1336;SDS011;662;48.814;9.318;2023-07-13T03:05:58;1.77;;;1.43;;
1336;SDS011;662;48.814;9.318;2023-07-13T03:08:25;3.20;;;1.80;;
1336;SDS011;662;48.814;9.318;2023-07-13T03:11:04;2.07;;;1.80;;
1336;SDS011;662;48.814;9.318;2023-07-13T03:13:31;2.50;;;1.40;;
1336;SDS011;662;48.814;9.318;2023-07-13T03:15:57;2.10;;;1.60;;
1336;SDS011;662;48.814;9.318;2023-07-13T03:18:22;2.30;;;1.47;;
1336;SDS011;662;48.814;9.318;2023-07-13T03:20:51;2.77;;;2.00;;
1336;SDS011;662;48.814;9.318;2023-07-13T03:23:17;2.00;;;1.50;;
1336;SDS011;662;48.814;9.318;2023-07-13T03:25:43;2.40;;;1.73;;
1336;SDS011;662;48.814;9.318;2023-07-13T03:28:10;1.97;;;1.77;;
1336;SDS011;662;48.814;9.318;2023-07-13T03:30:39;1.87;;;1.73;;
1336;SDS011;662;48.814;9.318;2023-07-13T03:33:05;2.50;;;1.43;;
1336;SDS011;662;48.814;9.318;2023-07-13T03:35:33;2.50;;;2.10;;
1336;SDS011;662;48.814;9.318;2023-07-13T03:37:59;2.17;;;1.60;;
1336;SDS011;662;48.814;9.318;2023-07-13T03:40:26;1.40;;;1.30;;
1336;SDS011;662;48.814;9.318;2023-07-13T03:42:52;2.00;;;1.67;;
1336;SDS011;662;48.814;9.318;2023-07-13T03:45:18;1.90;;;1.67;;
1336;SDS011;662;48.814;9.318;2023-07-13T03:47:44;3.20;;;1.40;;
1336;SDS011;662;48.814;9.318;2023-07-13T03:50:10;2.03;;;1.47;;
1336;SDS011;662;48.814;9.318;2023-07-13T03:52:36;1.27;;;1.17;;
1336;SDS011;662;48.814;9.318;2023-07-13T03:55:02;2.63;;;1.63;;
1336;SDS011;662;48.814;9.318;2023-07-13T03:57:28;2.90;;;2.03;;
1336;SDS011;662;48.814;9.318;2023-07-13T03:59:54;4.20;;;1.90;;
1336;SDS011;662;48.814;9.318;2023-07-13T04:02:20;1.87;;;1.70;;
1336;SDS011;662;48.814;9.318;2023-07-13T04:04:46;3.87;;;2.10;;
1336;SDS011;662;48.814;9.318;2023-07-13T04:07:11;2.10;;;1.60;;
1336;SDS011;662;48.814;9.318;2023-07-13T04:09:37;3.07;;;1.47;;
1336;SDS011;662;48.814;9.318;2023-07-13T04:12:03;3.10;;;1.90;;
1336;SDS011;662;48.814;9.318;2023-07-13T04:14:29;2.93;;;1.83;;
1336;SDS011;662;48.814;9.318;2023-07-13T04:16:55;3.17;;;2.27;;
1336;SDS011;662;48.814;9.318;2023-07-13T04:19:20;2.00;;;1.80;;
1336;SDS011;662;48.814;9.318;2023-07-13T04:21:46;3.77;;;2.00;;
1336;SDS011;662;48.814;9.318;2023-07-13T04:24:12;4.20;;;2.00;;
1336;SDS011;662;48.814;9.318;2023-07-13T04:26:38;2.37;;;1.90;;
1336;SDS011;662;48.814;9.318;2023-07-13T04:29:04;2.33;;;1.30;;
1336;SDS011;662;48.814;9.318;2023-07-13T04:31:31;2.60;;;2.30;;
1336;SDS011;662;48.814;9.318;2023-07-13T04:33:57;2.40;;;2.20;;
1336;SDS011;662;48.814;9.318;2023-07-13T04:36:23;2.07;;;1.80;;
1336;SDS011;662;48.814;9.318;2023-07-13T04:38:52;3.50;;;2.17;;
1336;SDS011;662;48.814;9.318;2023-07-13T04:41:18;2.10;;;1.90;;
1336;SDS011;662;48.814;9.318;2023-07-13T04:43:45;4.23;;;2.20;;
1336;SDS011;662;48.814;9.318;2023-07-13T04:46:12;2.30;;;2.10;;
1336;SDS011;662;48.814;9.318;2023-07-13T04:48:40;2.13;;;1.67;;
1336;SDS011;662;48.814;9.318;2023-07-13T04:51:06;1.90;;;1.70;;
1336;SDS011;662;48.814;9.318;2023-07-13T04:53:31;2.10;;;1.90;;
1336;SDS011;662;48.814;9.318;2023-07-13T04:55:59;1.60;;;1.50;;
1336;SDS011;662;48.814;9.318;2023-07-13T04:58:25;1.77;;;1.63;;
1336;SDS011;662;48.814;9.318;2023-07-13T05:00:51;1.83;;;1.47;;
1336;SDS011;662;48.814;9.318;2023-07-13T05:03:17;1.70;;;1.60;;
1336;SDS011;662;48.814;9.318;2023-07-13T05:05:43;2.17;;;1.63;;
1336;SDS011;662;48.814;9.318;2023-07-13T05:08:19;5.77;;;2.27;;
1336;SDS011;662;48.814;9.318;2023-07-13T05:10:44;3.90;;;2.23;;
1336;SDS011;662;48.814;9.318;2023-07-13T05:13:10;2.40;;;2.20;;
1336;SDS011;662;48.814;9.318;2023-07-13T05:15:35;2.93;;;2.37;;
1336;SDS011;662;48.814;9.318;2023-07-13T05:18:01;2.70;;;1.80;;
1336;SDS011;662;48.814;9.318;2023-07-13T05:20:26;2.40;;;2.13;;
1336;SDS011;662;48.814;9.318;2023-07-13T05:22:52;2.23;;;1.80;;
1336;SDS011;662;48.814;9.318;2023-07-13T05:25:17;2.43;;;2.00;;
1336;SDS011;662;48.814;9.318;2023-07-13T05:27:44;4.17;;;2.50;;
1336;SDS011;662;48.814;9.318;2023-07-13T05:30:10;2.77;;;2.17;;
1336;SDS011;662;48.814;9.318;2023-07-13T05:32:37;3.00;;;2.20;;
1336;SDS011;662;48.814;9.318;2023-07-13T05:35:03;4.47;;;1.93;;
1336;SDS011;662;48.814;9.318;2023-07-13T05:37:28;4.30;;;2.20;;
1336;SDS011;662;48.814;9.318;2023-07-13T05:39:54;3.73;;;1.90;;
1336;SDS011;662;48.814;9.318;2023-07-13T05:42:19;2.50;;;2.07;;
1336;SDS011;662;48.814;9.318;2023-07-13T05:44:45;3.30;;;1.80;;
1336;SDS011;662;48.814;9.318;2023-07-13T05:47:11;2.10;;;1.90;;
1336;SDS011;662;48.814;9.318;2023-07-13T05:49:36;2.40;;;1.57;;
1336;SDS011;662;48.814;9.318;2023-07-13T05:52:02;1.70;;;1.23;;
1336;SDS011;662;48.814;9.318;2023-07-13T05:54:28;2.03;;;1.90;;
1336;SDS011;662;48.814;9.318;2023-07-13T05:56:53;2.30;;;2.03;;
1336;SDS011;662;48.814;9.318;2023-07-13T05:59:19;2.30;;;1.87;;
1336;SDS011;662;48.814;9.318;2023-07-13T06:01:45;3.60;;;2.53;;
1336;SDS011;662;48.814;9.318;2023-07-13T06:04:10;1.80;;;1.60;;
1336;SDS011;662;48.814;9.318;2023-07-13T06:06:36;2.73;;;2.00;;
1336;SDS011;662;48.814;9.318;2023-07-13T06:09:01;3.33;;;2.23;;
1336;SDS011;662;48.814;9.318;2023-07-13T06:11:27;2.50;;;2.30;;
1336;SDS011;662;48.814;9.318;2023-07-13T06:13:55;2.47;;;1.80;;
1336;SDS011;662;48.814;9.318;2023-07-13T06:16:21;2.93;;;1.67;;
1336;SDS011;662;48.814;9.318;2023-07-13T06:18:47;2.50;;;1.90;;
1336;SDS011;662;48.814;9.318;2023-07-13T06:21:17;2.33;;;1.63;;
1336;SDS011;662;48.814;9.318;2023-07-13T06:23:45;3.00;;;1.60;;
1336;SDS011;662;48.814;9.318;2023-07-13T06:26:12;1.50;;;1.40;;
1336;SDS011;662;48.814;9.318;2023-07-13T06:28:38;5.93;;;1.50;;
1336;SDS011;662;48.814;9.318;2023-07-13T06:31:08;1.73;;;1.63;;
1336;SDS011;662;48.814;9.318;2023-07-13T06:33:36;3.20;;;1.63;;
1336;SDS011;662;48.814;9.318;2023-07-13T06:36:02;2.47;;;1.50;;
1336;SDS011;662;48.814;9.318;2023-07-13T06:38:29;2.27;;;1.47;;
1336;SDS011;662;48.814;9.318;2023-07-13T06:40:54;4.07;;;1.67;;
1336;SDS011;662;48.814;9.318;2023-07-13T06:43:20;1.40;;;1.30;;
1336;SDS011;662;48.814;9.318;2023-07-13T06:45:46;1.87;;;1.30;;
1336;SDS011;662;48.814;9.318;2023-07-13T06:48:18;4.00;;;1.80;;
1336;SDS011;662;48.814;9.318;2023-07-13T06:50:44;2.30;;;1.93;;
1336;SDS011;662;48.814;9.318;2023-07-13T06:53:11;2.13;;;1.77;;
1336;SDS011;662;48.814;9.318;2023-07-13T06:55:37;1.80;;;1.70;;
1336;SDS011;662;48.814;9.318;2023-07-13T06:58:03;2.67;;;1.37;;
1336;SDS011;662;48.814;9.318;2023-07-13T07:00:29;2.30;;;1.60;;
1336;SDS011;662;48.814;9.318;2023-07-13T07:02:55;1.60;;;1.50;;
1336;SDS011;662;48.814;9.318;2023-07-13T07:05:21;1.63;;;1.53;;
1336;SDS011;662;48.814;9.318;2023-07-13T07:07:47;1.30;;;1.20;;
1336;SDS011;662;48.814;9.318;2023-07-13T07:10:14;2.00;;;1.40;;
1336;SDS011;662;48.814;9.318;2023-07-13T07:12:40;1.37;;;1.27;;
1336;SDS011;662;48.814;9.318;2023-07-13T07:15:06;2.83;;;1.40;;
1336;SDS011;662;48.814;9.318;2023-07-13T07:17:32;1.57;;;1.43;;
1336;SDS011;662;48.814;9.318;2023-07-13T07:19:57;1.30;;;1.20;;
1336;SDS011;662;48.814;9.318;2023-07-13T07:22:23;4.23;;;1.40;;
1336;SDS011;662;48.814;9.318;2023-07-13T07:24:52;1.77;;;1.67;;
1336;SDS011;662;48.814;9.318;2023-07-13T07:27:17;2.30;;;1.27;;
1336;SDS011;662;48.814;9.318;2023-07-13T07:29:43;1.70;;;1.50;;
1336;SDS011;662;48.814;9.318;2023-07-13T07:32:09;1.43;;;1.33;;
1336;SDS011;662;48.814;9.318;2023-07-13T07:34:34;1.77;;;1.40;;
1336;SDS011;662;48.814;9.318;2023-07-13T07:37:00;1.20;;;1.10;;
1336;SDS011;662;48.814;9.318;2023-07-13T07:39:27;2.47;;;1.47;;
1336;SDS011;662;48.814;9.318;2023-07-13T07:41:53;3.53;;;1.50;;
1336;SDS011;662;48.814;9.318;2023-07-13T07:44:18;1.50;;;1.40;;
1336;SDS011;662;48.814;9.318;2023-07-13T07:46:44;1.20;;;1.10;;
1336;SDS011;662;48.814;9.318;2023-07-13T07:49:10;1.67;;;1.33;;
1336;SDS011;662;48.814;9.318;2023-07-13T07:51:36;1.57;;;1.00;;
1336;SDS011;662;48.814;9.318;2023-07-13T07:54:02;1.50;;;1.30;;
1336;SDS011;662;48.814;9.318;2023-07-13T07:56:29;1.33;;;1.10;;
1336;SDS011;662;48.814;9.318;2023-07-13T07:58:54;1.10;;;1.00;;
1336;SDS011;662;48.814;9.318;2023-07-13T08:01:20;2.17;;;1.33;;
1336;SDS011;662;48.814;9.318;2023-07-13T08:03:46;1.53;;;1.33;;
1336;SDS011;662;48.814;9.318;2023-07-13T08:06:12;1.90;;;1.10;;
1336;SDS011;662;48.814;9.318;2023-07-13T08:08:38;3.30;;;1.43;;
1336;SDS011;662;48.814;9.318;2023-07-13T08:11:04;1.73;;;1.30;;
1336;SDS011;662;48.814;9.318;2023-07-13T08:13:31;1.53;;;1.30;;
1336;SDS011;662;48.814;9.318;2023-07-13T08:15:56;1.80;;;1.30;;
1336;SDS011;662;48.814;9.318;2023-07-13T08:18:22;1.40;;;1.27;;
1336;SDS011;662;48.814;9.318;2023-07-13T08:20:48;1.30;;;1.03;;
1336;SDS011;662;48.814;9.318;2023-07-13T08:23:13;2.60;;;1.50;;
1336;SDS011;662;48.814;9.318;2023-07-13T08:25:40;4.13;;;1.50;;
1336;SDS011;662;48.814;9.318;2023-07-13T08:28:05;4.30;;;1.00;;
1336;SDS011;662;48.814;9.318;2023-07-13T08:30:31;1.30;;;1.07;;
1336;SDS011;662;48.814;9.318;2023-07-13T08:32:56;1.80;;;1.20;;
1336;SDS011;662;48.814;9.318;2023-07-13T08:35:22;1.40;;;1.10;;
1336;SDS011;662;48.814;9.318;2023-07-13T08:37:48;2.10;;;1.00;;
1336;SDS011;662;48.814;9.318;2023-07-13T08:40:13;3.27;;;1.50;;
1336;SDS011;662;48.814;9.318;2023-07-13T08:42:40;1.30;;;1.17;;
1336;SDS011;662;48.814;9.318;2023-07-13T08:47:48;1.93;;;1.20;;
1336;SDS011;662;48.814;9.318;2023-07-13T08:50:42;1.80;;;1.30;;
1336;SDS011;662;48.814;9.318;2023-07-13T08:53:16;1.87;;;1.30;;
1336;SDS011;662;48.814;9.318;2023-07-13T08:55:42;1.27;;;1.07;;
1336;SDS011;662;48.814;9.318;2023-07-13T08:58:12;1.57;;;1.07;;
1336;SDS011;662;48.814;9.318;2023-07-13T09:00:53;2.13;;;1.33;;
1336;SDS011;662;48.814;9.318;2023-07-13T09:03:43;1.13;;;1.00;;
1336;SDS011;662;48.814;9.318;2023-07-13T09:06:26;1.50;;;1.40;;
1336;SDS011;662;48.814;9.318;2023-07-13T09:09:02;2.20;;;1.23;;
1336;SDS011;662;48.814;9.318;2023-07-13T09:12:31;4.70;;;1.37;;
1336;SDS011;662;48.814;9.318;2023-07-13T09:15:04;1.23;;;1.03;;
1336;SDS011;662;48.814;9.318;2023-07-13T09:17:41;3.57;;;1.40;;
1336;SDS011;662;48.814;9.318;2023-07-13T09:22:44;1.20;;;1.10;;
1336;SDS011;662;48.814;9.318;2023-07-13T09:25:18;2.40;;;1.43;;
1336;SDS011;662;48.814;9.318;2023-07-13T09:28:15;3.03;;;1.17;;
1336;SDS011;662;48.814;9.318;2023-07-13T09:30:51;1.87;;;1.10;;
1336;SDS011;662;48.814;9.318;2023-07-13T09:33:23;1.50;;;1.10;;
1336;SDS011;662;48.814;9.318;2023-07-13T09:35:48;1.43;;;1.20;;
1336;SDS011;662;48.814;9.318;2023-07-13T09:38:15;1.90;;;1.30;;
1336;SDS011;662;48.814;9.318;2023-07-13T09:40:46;2.10;;;1.10;;
1336;SDS011;662;48.814;9.318;2023-07-13T09:43:26;2.13;;;1.70;;
1336;SDS011;662;48.814;9.318;2023-07-13T09:45:54;1.73;;;1.30;;
1336;SDS011;662;48.814;9.318;2023-07-13T09:48:20;1.77;;;1.27;;
1336;SDS011;662;48.814;9.318;2023-07-13T09:50:46;1.57;;;1.47;;
1336;SDS011;662;48.814;9.318;2023-07-13T09:53:16;1.83;;;1.00;;
1336;SDS011;662;48.814;9.318;2023-07-13T09:55:44;3.20;;;1.20;;
1336;SDS011;662;48.814;9.318;2023-07-13T09:58:18;1.80;;;1.13;;
1336;SDS011;662;48.814;9.318;2023-07-13T10:00:55;1.50;;;1.40;;
1336;SDS011;662;48.814;9.318;2023-07-13T10:03:32;1.20;;;1.10;;
1336;SDS011;662;48.814;9.318;2023-07-13T10:06:16;1.87;;;1.00;;
1336;SDS011;662;48.814;9.318;2023-07-13T10:08:47;1.60;;;1.30;;
1336;SDS011;662;48.814;9.318;2023-07-13T10:11:18;1.33;;;1.13;;
1336;SDS011;662;48.814;9.318;2023-07-13T10:16:25;2.10;;;1.20;;
1336;SDS011;662;48.814;9.318;2023-07-13T10:18:58;1.70;;;1.40;;
1336;SDS011;662;48.814;9.318;2023-07-13T10:21:28;1.73;;;1.47;;
1336;SDS011;662;48.814;9.318;2023-07-13T10:24:20;2.53;;;1.47;;
1336;SDS011;662;48.814;9.318;2023-07-13T10:26:48;4.00;;;1.23;;
1336;SDS011;662;48.814;9.318;2023-07-13T10:29:39;2.03;;;1.40;;
1336;SDS011;662;48.814;9.318;2023-07-13T10:32:11;1.07;;;1.00;;
1336;SDS011;662;48.814;9.318;2023-07-13T10:34:38;1.60;;;1.43;;
1336;SDS011;662;48.814;9.318;2023-07-13T10:37:06;3.43;;;1.20;;
1336;SDS011;662;48.814;9.318;2023-07-13T10:39:41;1.33;;;1.00;;
1336;SDS011;662;48.814;9.318;2023-07-13T10:42:08;1.30;;;1.20;;
1336;SDS011;662;48.814;9.318;2023-07-13T10:44:37;1.37;;;1.23;;
1336;SDS011;662;48.814;9.318;2023-07-13T10:47:07;2.10;;;1.10;;
1336;SDS011;662;48.814;9.318;2023-07-13T10:49:36;2.90;;;1.70;;
1336;SDS011;662;48.814;9.318;2023-07-13T10:52:03;1.43;;;1.33;;
1336;SDS011;662;48.814;9.318;2023-07-13T11:02:28;3.03;;;1.47;;
1336;SDS011;662;48.814;9.318;2023-07-13T11:04:54;1.77;;;1.30;;
1336;SDS011;662;48.814;9.318;2023-07-13T11:09:53;4.40;;;1.20;;
1336;SDS011;662;48.814;9.318;2023-07-13T11:15:15;2.63;;;1.50;;
1336;SDS011;662;48.814;9.318;2023-07-13T11:17:54;1.77;;;1.30;;
1336;SDS011;662;48.814;9.318;2023-07-13T11:20:32;2.30;;;1.10;;
1336;SDS011;662;48.814;9.318;2023-07-13T11:25:37;2.37;;;1.30;;
1336;SDS011;662;48.814;9.318;2023-07-13T11:30:39;1.43;;;1.33;;
1336;SDS011;662;48.814;9.318;2023-07-13T11:33:13;1.97;;;1.57;;
1336;SDS011;662;48.814;9.318;2023-07-13T11:35:45;1.10;;;1.00;;
1336;SDS011;662;48.814;9.318;2023-07-13T11:38:23;1.50;;;1.10;;
1336;SDS011;662;48.814;9.318;2023-07-13T11:40:53;1.87;;;1.30;;
1336;SDS011;662;48.814;9.318;2023-07-13T11:43:20;5.90;;;1.27;;
1336;SDS011;662;48.814;9.318;2023-07-13T11:45:48;3.40;;;1.40;;
1336;SDS011;662;48.814;9.318;2023-07-13T11:48:18;1.53;;;0.97;;
1336;SDS011;662;48.814;9.318;2023-07-13T11:50:59;1.73;;;1.33;;
1336;SDS011;662;48.814;9.318;2023-07-13T11:53:29;2.30;;;1.48;;
1336;SDS011;662;48.814;9.318;2023-07-13T11:56:02;1.92;;;0.98;;
1336;SDS011;662;48.814;9.318;2023-07-13T11:58:28;1.13;;;1.00;;
1336;SDS011;662;48.814;9.318;2023-07-13T12:00:53;1.70;;;1.30;;
1336;SDS011;662;48.814;9.318;2023-07-13T12:03:22;1.90;;;1.10;;
1336;SDS011;662;48.814;9.318;2023-07-13T12:05:56;1.30;;;1.10;;
1336;SDS011;662;48.814;9.318;2023-07-13T12:08:23;1.47;;;1.37;;
1336;SDS011;662;48.814;9.318;2023-07-13T12:10:55;1.27;;;1.17;;
1336;SDS011;662;48.814;9.318;2023-07-13T12:13:22;1.57;;;1.23;;
1336;SDS011;662;48.814;9.318;2023-07-13T12:15:48;1.17;;;1.07;;
1336;SDS011;662;48.814;9.318;2023-07-13T12:18:15;1.40;;;1.20;;
1336;SDS011;662;48.814;9.318;2023-07-13T12:20:44;1.97;;;1.17;;
1336;SDS011;662;48.814;9.318;2023-07-13T12:23:20;4.73;;;1.27;;
1336;SDS011;662;48.814;9.318;2023-07-13T12:25:53;1.20;;;1.10;;
1336;SDS011;662;48.814;9.318;2023-07-13T12:28:22;1.58;;;1.38;;
1336;SDS011;662;48.814;9.318;2023-07-13T12:30:59;1.83;;;1.30;;
1336;SDS011;662;48.814;9.318;2023-07-13T12:33:27;1.60;;;1.10;;
1336;SDS011;662;48.814;9.318;2023-07-13T12:35:54;1.88;;;1.10;;
1336;SDS011;662;48.814;9.318;2023-07-13T12:38:20;2.05;;;1.33;;
1336;SDS011;662;48.814;9.318;2023-07-13T12:40:49;1.30;;;1.20;;
1336;SDS011;662;48.814;9.318;2023-07-13T12:43:16;4.03;;;1.85;;
1336;SDS011;662;48.814;9.318;2023-07-13T12:46:04;3.40;;;1.40;;
1336;SDS011;662;48.814;9.318;2023-07-13T12:48:41;1.50;;;0.90;;
1336;SDS011;662;48.814;9.318;2023-07-13T12:51:09;1.73;;;1.50;;
1336;SDS011;662;48.814;9.318;2023-07-13T12:53:42;1.00;;;1.00;;
1336;SDS011;662;48.814;9.318;2023-07-13T12:56:16;1.20;;;1.10;;
1336;SDS011;662;48.814;9.318;2023-07-13T12:58:45;2.88;;;1.55;;
1336;SDS011;662;48.814;9.318;2023-07-13T13:01:15;1.52;;;1.30;;
1336;SDS011;662;48.814;9.318;2023-07-13T13:03:46;1.40;;;1.30;;
1336;SDS011;662;48.814;9.318;2023-07-13T13:08:44;2.90;;;1.30;;
1336;SDS011;662;48.814;9.318;2023-07-13T13:11:17;2.43;;;1.10;;
1336;SDS011;662;48.814;9.318;2023-07-13T13:13:44;3.43;;;1.80;;
1336;SDS011;662;48.814;9.318;2023-07-13T13:16:21;1.47;;;1.37;;
1336;SDS011;662;48.814;9.318;2023-07-13T13:18:57;1.63;;;1.30;;
1336;SDS011;662;48.814;9.318;2023-07-13T13:21:27;1.33;;;1.20;;
1336;SDS011;662;48.814;9.318;2023-07-13T13:23:53;1.37;;;1.27;;
1336;SDS011;662;48.814;9.318;2023-07-13T13:26:19;1.20;;;1.10;;
1336;SDS011;662;48.814;9.318;2023-07-13T13:28:46;1.33;;;1.23;;
1336;SDS011;662;48.814;9.318;2023-07-13T13:31:15;2.70;;;1.50;;
1336;SDS011;662;48.814;9.318;2023-07-13T13:33:41;1.70;;;1.30;;
1336;SDS011;662;48.814;9.318;2023-07-13T13:36:18;1.83;;;1.50;;
1336;SDS011;662;48.814;9.318;2023-07-13T13:38:45;2.07;;;1.57;;
1336;SDS011;662;48.814;9.318;2023-07-13T13:41:12;4.37;;;1.40;;
1336;SDS011;662;48.814;9.318;2023-07-13T13:43:39;1.97;;;1.50;;
1336;SDS011;662;48.814;9.318;2023-07-13T13:46:11;1.33;;;1.23;;
1336;SDS011;662;48.814;9.318;2023-07-13T13:48:43;1.60;;;1.50;;
1336;SDS011;662;48.814;9.318;2023-07-13T13:51:16;1.17;;;1.17;;
1336;SDS011;662;48.814;9.318;2023-07-13T13:53:44;2.23;;;1.40;;
1336;SDS011;662;48.814;9.318;2023-07-13T13:56:11;1.73;;;1.30;;
1336;SDS011;662;48.814;9.318;2023-07-13T13:58:37;1.33;;;1.10;;
1336;SDS011;662;48.814;9.318;2023-07-13T14:01:03;1.27;;;1.17;;
1336;SDS011;662;48.814;9.318;2023-07-13T14:03:33;1.40;;;1.30;;
1336;SDS011;662;48.814;9.318;2023-07-13T14:05:59;1.47;;;1.37;;
1336;SDS011;662;48.814;9.318;2023-07-13T14:08:25;1.40;;;1.30;;
1336;SDS011;662;48.814;9.318;2023-07-13T14:10:51;1.40;;;1.30;;
1336;SDS011;662;48.814;9.318;2023-07-13T14:13:42;1.20;;;1.00;;
1336;SDS011;662;48.814;9.318;2023-07-13T14:16:15;1.37;;;1.27;;
1336;SDS011;662;48.814;9.318;2023-07-13T14:18:43;1.00;;;1.00;;
1336;SDS011;662;48.814;9.318;2023-07-13T14:21:17;2.13;;;1.60;;
1336;SDS011;662;48.814;9.318;2023-07-13T14:23:45;1.60;;;1.50;;
1336;SDS011;662;48.814;9.318;2023-07-13T14:26:12;1.90;;;1.50;;
1336;SDS011;662;48.814;9.318;2023-07-13T14:28:41;2.40;;;1.33;;
1336;SDS011;662;48.814;9.318;2023-07-13T14:31:09;1.67;;;1.53;;
1336;SDS011;662;48.814;9.318;2023-07-13T14:33:36;2.00;;;1.43;;
1336;SDS011;662;48.814;9.318;2023-07-13T14:36:02;2.10;;;1.20;;
1336;SDS011;662;48.814;9.318;2023-07-13T14:38:34;1.93;;;1.43;;
1336;SDS011;662;48.814;9.318;2023-07-13T14:41:00;1.30;;;1.20;;
1336;SDS011;662;48.814;9.318;2023-07-13T14:43:25;8.33;;;1.63;;
1336;SDS011;662;48.814;9.318;2023-07-13T14:45:53;1.10;;;1.10;;
1336;SDS011;662;48.814;9.318;2023-07-13T14:48:23;1.87;;;1.30;;
1336;SDS011;662;48.814;9.318;2023-07-13T14:50:56;2.60;;;1.30;;
1336;SDS011;662;48.814;9.318;2023-07-13T14:53:27;2.30;;;1.30;;
1336;SDS011;662;48.814;9.318;2023-07-13T14:55:52;1.63;;;1.20;;
1336;SDS011;662;48.814;9.318;2023-07-13T14:58:18;1.30;;;1.20;;
1336;SDS011;662;48.814;9.318;2023-07-13T15:00:44;1.60;;;1.37;;
1336;SDS011;662;48.814;9.318;2023-07-13T15:03:16;1.50;;;1.37;;
1336;SDS011;662;48.814;9.318;2023-07-13T15:05:46;1.50;;;1.40;;
1336;SDS011;662;48.814;9.318;2023-07-13T15:08:13;1.70;;;1.60;;
1336;SDS011;662;48.814;9.318;2023-07-13T15:10:40;4.37;;;1.37;;
1336;SDS011;662;48.814;9.318;2023-07-13T15:13:16;1.30;;;1.20;;
1336;SDS011;662;48.814;9.318;2023-07-13T15:15:51;1.47;;;1.00;;
1336;SDS011;662;48.814;9.318;2023-07-13T15:18:19;2.30;;;1.57;;
1336;SDS011;662;48.814;9.318;2023-07-13T15:20:47;2.03;;;1.53;;
1336;SDS011;662;48.814;9.318;2023-07-13T15:23:15;1.53;;;1.40;;
1336;SDS011;662;48.814;9.318;2023-07-13T15:25:42;1.60;;;1.40;;
1336;SDS011;662;48.814;9.318;2023-07-13T15:28:09;1.60;;;1.37;;
1336;SDS011;662;48.814;9.318;2023-07-13T15:30:45;2.40;;;1.53;;
1336;SDS011;662;48.814;9.318;2023-07-13T15:35:47;1.63;;;1.53;;
1336;SDS011;662;48.814;9.318;2023-07-13T15:38:21;2.47;;;1.60;;
1336;SDS011;662;48.814;9.318;2023-07-13T15:40:49;1.40;;;1.30;;
1336;SDS011;662;48.814;9.318;2023-07-13T15:43:18;1.50;;;1.40;;
1336;SDS011;662;48.814;9.318;2023-07-13T15:45:44;1.77;;;1.67;;
1336;SDS011;662;48.814;9.318;2023-07-13T15:48:18;1.23;;;1.10;;
1336;SDS011;662;48.814;9.318;2023-07-13T15:50:52;1.60;;;1.50;;
1336;SDS011;662;48.814;9.318;2023-07-13T15:53:21;2.60;;;2.30;;
1336;SDS011;662;48.814;9.318;2023-07-13T15:55:49;3.83;;;2.73;;
1336;SDS011;662;48.814;9.318;2023-07-13T15:58:16;5.33;;;3.70;;
1336;SDS011;662;48.814;9.318;2023-07-13T16:00:43;2.80;;;2.60;;
1336;SDS011;662;48.814;9.318;2023-07-13T16:03:10;2.03;;;1.80;;
1336;SDS011;662;48.814;9.318;2023-07-13T16:05:36;3.20;;;1.67;;
1336;SDS011;662;48.814;9.318;2023-07-13T16:08:03;2.60;;;1.53;;
1336;SDS011;662;48.814;9.318;2023-07-13T16:10:32;1.30;;;1.20;;
1336;SDS011;662;48.814;9.318;2023-07-13T16:13:02;2.67;;;1.60;;